Hauptseite
METAR-TAF:

METAR-TAF

Flughäfen :

Kassel, Deutschland

Flughafen Kassel-Calden

Breite: 51-24N, Länge: 009-23E, Höhe: 277 m

Beobachtung

Neuester Wetterbericht von vor 28 Minuten, um 13:20 UTC
Wind 16 kt aus Ost/Nordost
Temperatur 0°C
Luftfeuchtigkeit 51%
Luftdruck 1026 hPa
Sichtweite 10 km oder mehr
Durchbrochene Bewölkung in der Höhe von 3500 ft

METAR: EDVK 241320Z 07016KT 9999 BKN035 M00/M09 Q1026

Zeit: 14:48 (13:48 UTC)

Prognose

Neuester Wetterbericht von vor 2 Stunden und 48 Minuten, um 11:00 UTC
Gültige Prognose vom 24 um 12 UTC bis 24 um 21 UTC
Wind 10 kt aus Ost
Sichtweite 10 km oder mehr
Aufgelockert bewölkt in der Höhe von 2500 ft
Wahrscheinlichkeit 40% :
Zeitweise
vom 24 um 12 UTC bis 24 um 20 UTC
Wind 15 kt aus Ost/Nordost, Böen bis zu 25 kt

TAF: EDVK 241100Z 2412/2421 08010KT 9999 SCT025 PROB40 TEMPO 2412/2420 07015G25KT

Wetterbeobachtungen und Prognosen von mehr als 4000 Flughäfen (METAR und TAF Bericht).

Die verfügbaren Stationen werden durch gelbe und rote Markierungen auf der Karte dargestellt.

Führen Sie die Maus auf sie, um den Namen der Station zu sehen.

Darauf klicken, um die Beobachtung von Wetterbeobachtungen und Prognosen zu sehen.

Um die Karte zu ändern : klicken Sie auf den grünen Tasten mit einem schwarzen Kreuz Zum Vergrößern, auf den grünen Button mit einem Gedankenstrich zu verkleinern, oder auf die grünen Pfeile für benachbarte Karten.


METAR-TAF: